sensor_id;sensor_type;location;lat;lon;timestamp;pressure;altitude;pressure_sealevel;temperature;humidity
35806;BME280;21925;44.608;11.580;2024-01-30T00:01:25;103861.59;;;1.48;100.00
35806;BME280;21925;44.608;11.580;2024-01-30T00:03:51;103925.97;;;1.90;100.00
35806;BME280;21925;44.608;11.580;2024-01-30T00:06:20;103909.00;;;1.51;100.00
35806;BME280;21925;44.608;11.580;2024-01-30T00:08:46;103897.38;;;1.50;100.00
35806;BME280;21925;44.608;11.580;2024-01-30T00:11:14;103873.47;;;1.34;100.00
35806;BME280;21925;44.608;11.580;2024-01-30T00:13:41;103868.03;;;1.60;100.00
35806;BME280;21925;44.608;11.580;2024-01-30T00:16:07;103904.78;;;1.80;100.00
35806;BME280;21925;44.608;11.580;2024-01-30T00:18:33;103877.41;;;1.51;100.00
35806;BME280;21925;44.608;11.580;2024-01-30T00:20:59;103863.53;;;1.15;100.00
35806;BME280;21925;44.608;11.580;2024-01-30T00:23:25;103874.75;;;0.99;100.00
35806;BME280;21925;44.608;11.580;2024-01-30T00:25:50;103913.00;;;0.96;100.00
35806;BME280;21925;44.608;11.580;2024-01-30T00:28:16;103910.50;;;1.01;100.00
35806;BME280;21925;44.608;11.580;2024-01-30T00:30:41;103888.06;;;1.20;100.00
35806;BME280;21925;44.608;11.580;2024-01-30T00:33:08;103908.38;;;1.55;100.00
35806;BME280;21925;44.608;11.580;2024-01-30T00:35:33;103869.56;;;1.11;100.00
35806;BME280;21925;44.608;11.580;2024-01-30T00:37:59;103850.00;;;1.15;100.00
35806;BME280;21925;44.608;11.580;2024-01-30T00:40:25;103888.84;;;1.40;100.00
35806;BME280;21925;44.608;11.580;2024-01-30T00:42:50;103845.03;;;0.99;100.00
35806;BME280;21925;44.608;11.580;2024-01-30T00:45:16;103854.78;;;1.33;100.00
35806;BME280;21925;44.608;11.580;2024-01-30T00:47:42;103895.47;;;1.63;100.00
35806;BME280;21925;44.608;11.580;2024-01-30T00:50:08;103900.47;;;1.54;100.00
35806;BME280;21925;44.608;11.580;2024-01-30T00:52:34;103851.63;;;1.36;100.00
35806;BME280;21925;44.608;11.580;2024-01-30T00:55:00;103891.50;;;1.66;100.00
35806;BME280;21925;44.608;11.580;2024-01-30T00:57:26;103818.63;;;1.21;100.00
35806;BME280;21925;44.608;11.580;2024-01-30T00:59:52;103822.81;;;1.04;100.00
35806;BME280;21925;44.608;11.580;2024-01-30T01:02:18;103888.06;;;1.20;100.00
35806;BME280;21925;44.608;11.580;2024-01-30T01:04:44;103851.91;;;0.89;100.00
35806;BME280;21925;44.608;11.580;2024-01-30T01:07:10;103841.13;;;0.76;100.00
35806;BME280;21925;44.608;11.580;2024-01-30T01:09:36;103891.59;;;0.95;100.00
35806;BME280;21925;44.608;11.580;2024-01-30T01:12:03;103887.22;;;1.13;100.00
35806;BME280;21925;44.608;11.580;2024-01-30T01:14:29;103856.22;;;1.29;100.00
35806;BME280;21925;44.608;11.580;2024-01-30T01:16:55;103882.59;;;1.46;100.00
35806;BME280;21925;44.608;11.580;2024-01-30T01:19:21;103855.63;;;0.81;100.00
35806;BME280;21925;44.608;11.580;2024-01-30T01:21:47;103841.50;;;1.18;100.00
35806;BME280;21925;44.608;11.580;2024-01-30T01:24:12;103839.00;;;0.97;100.00
35806;BME280;21925;44.608;11.580;2024-01-30T01:26:38;103839.44;;;1.01;100.00
35806;BME280;21925;44.608;11.580;2024-01-30T01:29:04;103809.31;;;0.91;100.00
35806;BME280;21925;44.608;11.580;2024-01-30T01:31:38;103883.09;;;1.04;100.00
35806;BME280;21925;44.608;11.580;2024-01-30T01:34:11;103878.72;;;1.03;100.00
35806;BME280;21925;44.608;11.580;2024-01-30T01:36:37;103855.25;;;0.72;100.00
35806;BME280;21925;44.608;11.580;2024-01-30T01:39:03;103827.16;;;0.40;100.00
35806;BME280;21925;44.608;11.580;2024-01-30T01:41:32;103840.25;;;0.50;100.00
35806;BME280;21925;44.608;11.580;2024-01-30T01:43:59;103836.72;;;0.36;100.00
35806;BME280;21925;44.608;11.580;2024-01-30T01:46:30;103852.28;;;0.47;100.00
35806;BME280;21925;44.608;11.580;2024-01-30T01:48:58;103834.44;;;0.33;100.00
35806;BME280;21925;44.608;11.580;2024-01-30T01:51:27;103842.31;;;0.41;100.00
35806;BME280;21925;44.608;11.580;2024-01-30T01:53:53;103867.28;;;0.63;100.00
35806;BME280;21925;44.608;11.580;2024-01-30T01:56:19;103852.31;;;0.60;100.00
35806;BME280;21925;44.608;11.580;2024-01-30T01:58:46;103885.16;;;0.64;100.00
35806;BME280;21925;44.608;11.580;2024-01-30T02:01:13;103848.53;;;0.42;100.00
35806;BME280;21925;44.608;11.580;2024-01-30T02:03:46;103863.09;;;0.47;100.00
35806;BME280;21925;44.608;11.580;2024-01-30T02:06:13;103837.94;;;0.27;100.00
35806;BME280;21925;44.608;11.580;2024-01-30T02:08:39;103848.13;;;0.38;100.00
35806;BME280;21925;44.608;11.580;2024-01-30T02:11:05;103894.47;;;0.55;100.00
35806;BME280;21925;44.608;11.580;2024-01-30T02:13:30;103852.94;;;0.49;100.00
35806;BME280;21925;44.608;11.580;2024-01-30T02:15:56;103824.88;;;0.31;100.00
35806;BME280;21925;44.608;11.580;2024-01-30T02:18:22;103842.75;;;0.58;100.00
35806;BME280;21925;44.608;11.580;2024-01-30T02:20:48;103815.75;;;0.32;100.00
35806;BME280;21925;44.608;11.580;2024-01-30T02:23:15;103893.03;;;0.65;100.00
35806;BME280;21925;44.608;11.580;2024-01-30T02:25:42;103839.78;;;0.20;100.00
35806;BME280;21925;44.608;11.580;2024-01-30T02:28:13;103793.50;;;0.10;100.00
35806;BME280;21925;44.608;11.580;2024-01-30T02:30:39;103868.31;;;0.75;100.00
35806;BME280;21925;44.608;11.580;2024-01-30T02:33:05;103819.06;;;0.34;100.00
35806;BME280;21925;44.608;11.580;2024-01-30T02:35:31;103841.91;;;0.38;100.00
35806;BME280;21925;44.608;11.580;2024-01-30T02:37:57;103851.47;;;0.47;100.00
35806;BME280;21925;44.608;11.580;2024-01-30T02:40:22;103826.31;;;0.27;100.00
35806;BME280;21925;44.608;11.580;2024-01-30T02:42:48;103851.47;;;0.40;100.00
35806;BME280;21925;44.608;11.580;2024-01-30T02:45:14;103806.16;;;0.03;100.00
35806;BME280;21925;44.608;11.580;2024-01-30T02:47:40;103835.03;;;0.29;100.00
35806;BME280;21925;44.608;11.580;2024-01-30T02:50:06;103893.66;;;0.61;100.00
35806;BME280;21925;44.608;11.580;2024-01-30T02:52:32;103836.50;;;0.38;100.00
35806;BME280;21925;44.608;11.580;2024-01-30T02:54:57;103859.78;;;0.39;100.00
35806;BME280;21925;44.608;11.580;2024-01-30T02:57:23;103823.34;;;0.09;100.00
35806;BME280;21925;44.608;11.580;2024-01-30T02:59:49;103800.28;;;-0.13;100.00
35806;BME280;21925;44.608;11.580;2024-01-30T03:02:14;103815.50;;;0.14;100.00
35806;BME280;21925;44.608;11.580;2024-01-30T03:04:43;103840.41;;;0.22;100.00
35806;BME280;21925;44.608;11.580;2024-01-30T03:07:09;103856.84;;;0.40;100.00
35806;BME280;21925;44.608;11.580;2024-01-30T03:09:36;103862.44;;;0.19;100.00
35806;BME280;21925;44.608;11.580;2024-01-30T03:12:02;103858.94;;;0.32;100.00
35806;BME280;21925;44.608;11.580;2024-01-30T03:14:32;103812.00;;;0.33;100.00
35806;BME280;21925;44.608;11.580;2024-01-30T03:16:58;103806.63;;;0.46;100.00
35806;BME280;21925;44.608;11.580;2024-01-30T03:19:24;103803.88;;;0.33;100.00
35806;BME280;21925;44.608;11.580;2024-01-30T03:21:50;103872.69;;;0.76;100.00
35806;BME280;21925;44.608;11.580;2024-01-30T03:24:16;103809.13;;;0.54;100.00
35806;BME280;21925;44.608;11.580;2024-01-30T03:26:43;103866.03;;;0.65;100.00
35806;BME280;21925;44.608;11.580;2024-01-30T03:29:09;103799.97;;;0.35;100.00
35806;BME280;21925;44.608;11.580;2024-01-30T03:31:34;103866.03;;;0.97;100.00
35806;BME280;21925;44.608;11.580;2024-01-30T03:34:01;103853.56;;;0.83;100.00
35806;BME280;21925;44.608;11.580;2024-01-30T03:36:26;103824.25;;;0.48;100.00
35806;BME280;21925;44.608;11.580;2024-01-30T03:38:52;103858.56;;;0.67;100.00
35806;BME280;21925;44.608;11.580;2024-01-30T03:41:18;103825.91;;;0.30;100.00
35806;BME280;21925;44.608;11.580;2024-01-30T03:43:43;103857.66;;;0.41;100.00
35806;BME280;21925;44.608;11.580;2024-01-30T03:46:09;103840.63;;;0.21;100.00
35806;BME280;21925;44.608;11.580;2024-01-30T03:48:37;103792.22;;;-0.06;100.00
35806;BME280;21925;44.608;11.580;2024-01-30T03:51:02;103817.13;;;0.02;100.00
35806;BME280;21925;44.608;11.580;2024-01-30T03:53:29;103863.50;;;0.51;100.00
35806;BME280;21925;44.608;11.580;2024-01-30T03:55:55;103752.28;;;-0.37;100.00
35806;BME280;21925;44.608;11.580;2024-01-30T03:58:20;103822.09;;;-0.02;100.00
35806;BME280;21925;44.608;11.580;2024-01-30T04:00:46;103837.44;;;-0.02;100.00
35806;BME280;21925;44.608;11.580;2024-01-30T04:03:12;103827.44;;;-0.08;100.00
35806;BME280;21925;44.608;11.580;2024-01-30T04:05:37;103803.13;;;-0.27;100.00
35806;BME280;21925;44.608;11.580;2024-01-30T04:08:03;103814.78;;;-0.20;100.00
35806;BME280;21925;44.608;11.580;2024-01-30T04:10:29;103819.31;;;-0.21;100.00
35806;BME280;21925;44.608;11.580;2024-01-30T04:12:54;103816.00;;;-0.23;100.00
35806;BME280;21925;44.608;11.580;2024-01-30T04:15:21;103807.31;;;-0.25;100.00
35806;BME280;21925;44.608;11.580;2024-01-30T04:17:46;103859.31;;;0.29;100.00
35806;BME280;21925;44.608;11.580;2024-01-30T04:20:16;103858.75;;;0.40;100.00
35806;BME280;21925;44.608;11.580;2024-01-30T04:22:45;103785.38;;;-0.09;100.00
35806;BME280;21925;44.608;11.580;2024-01-30T04:25:12;103842.28;;;0.28;100.00
35806;BME280;21925;44.608;11.580;2024-01-30T04:27:38;103813.25;;;0.24;100.00
35806;BME280;21925;44.608;11.580;2024-01-30T04:30:04;103799.09;;;0.15;100.00
35806;BME280;21925;44.608;11.580;2024-01-30T04:32:30;103792.44;;;0.05;100.00
35806;BME280;21925;44.608;11.580;2024-01-30T04:34:55;103829.63;;;0.29;100.00
35806;BME280;21925;44.608;11.580;2024-01-30T04:37:21;103837.94;;;0.21;100.00
35806;BME280;21925;44.608;11.580;2024-01-30T04:39:47;103856.00;;;0.27;100.00
35806;BME280;21925;44.608;11.580;2024-01-30T04:42:12;103815.88;;;-0.02;100.00
35806;BME280;21925;44.608;11.580;2024-01-30T04:44:38;103811.13;;;0.06;100.00
35806;BME280;21925;44.608;11.580;2024-01-30T04:47:04;103806.94;;;-0.03;100.00
35806;BME280;21925;44.608;11.580;2024-01-30T04:49:31;103789.09;;;0.03;100.00
35806;BME280;21925;44.608;11.580;2024-01-30T04:51:57;103807.00;;;0.10;100.00
35806;BME280;21925;44.608;11.580;2024-01-30T04:54:24;103834.00;;;0.30;100.00
35806;BME280;21925;44.608;11.580;2024-01-30T04:56:49;103854.56;;;0.44;100.00
35806;BME280;21925;44.608;11.580;2024-01-30T04:59:15;103805.28;;;0.03;100.00
35806;BME280;21925;44.608;11.580;2024-01-30T05:01:40;103806.97;;;0.04;100.00
35806;BME280;21925;44.608;11.580;2024-01-30T05:04:09;103842.50;;;0.27;100.00
35806;BME280;21925;44.608;11.580;2024-01-30T05:06:36;103877.41;;;0.41;100.00
35806;BME280;21925;44.608;11.580;2024-01-30T05:09:02;103817.97;;;0.09;100.00
35806;BME280;21925;44.608;11.580;2024-01-30T05:11:30;103813.63;;;0.14;100.00
35806;BME280;21925;44.608;11.580;2024-01-30T05:13:56;103865.59;;;0.42;100.00
35806;BME280;21925;44.608;11.580;2024-01-30T05:16:21;103844.34;;;0.20;100.00
35806;BME280;21925;44.608;11.580;2024-01-30T05:18:47;103851.03;;;0.24;100.00
35806;BME280;21925;44.608;11.580;2024-01-30T05:21:13;103828.63;;;0.36;100.00
35806;BME280;21925;44.608;11.580;2024-01-30T05:23:38;103866.22;;;0.57;100.00
35806;BME280;21925;44.608;11.580;2024-01-30T05:26:04;103867.69;;;0.66;100.00
35806;BME280;21925;44.608;11.580;2024-01-30T05:28:30;103899.50;;;0.96;100.00
35806;BME280;21925;44.608;11.580;2024-01-30T05:30:56;103838.19;;;0.77;100.00
35806;BME280;21925;44.608;11.580;2024-01-30T05:33:21;103852.28;;;0.47;100.00
35806;BME280;21925;44.608;11.580;2024-01-30T05:35:47;103879.31;;;0.54;100.00
35806;BME280;21925;44.608;11.580;2024-01-30T05:38:15;103821.50;;;0.09;100.00
35806;BME280;21925;44.608;11.580;2024-01-30T05:40:41;103820.66;;;0.02;100.00
35806;BME280;21925;44.608;11.580;2024-01-30T05:43:07;103824.22;;;0.16;100.00
35806;BME280;21925;44.608;11.580;2024-01-30T05:45:33;103862.06;;;0.55;100.00
35806;BME280;21925;44.608;11.580;2024-01-30T05:48:00;103863.13;;;0.54;100.00
35806;BME280;21925;44.608;11.580;2024-01-30T05:50:26;103896.75;;;0.77;100.00
35806;BME280;21925;44.608;11.580;2024-01-30T05:52:52;103848.34;;;0.43;100.00
35806;BME280;21925;44.608;11.580;2024-01-30T05:55:18;103784.50;;;-0.09;100.00
35806;BME280;21925;44.608;11.580;2024-01-30T05:57:44;103810.06;;;-0.05;100.00
35806;BME280;21925;44.608;11.580;2024-01-30T06:00:10;103896.28;;;0.35;100.00
35806;BME280;21925;44.608;11.580;2024-01-30T06:02:36;103818.16;;;0.01;100.00
35806;BME280;21925;44.608;11.580;2024-01-30T06:05:02;103824.38;;;0.01;100.00
35806;BME280;21925;44.608;11.580;2024-01-30T06:07:27;103859.31;;;0.16;100.00
35806;BME280;21925;44.608;11.580;2024-01-30T06:09:53;103834.34;;;0.07;100.00
35806;BME280;21925;44.608;11.580;2024-01-30T06:12:18;103871.38;;;0.26;100.00
35806;BME280;21925;44.608;11.580;2024-01-30T06:14:44;103844.81;;;0.30;100.00
35806;BME280;21925;44.608;11.580;2024-01-30T06:17:10;103815.72;;;0.19;100.00
35806;BME280;21925;44.608;11.580;2024-01-30T06:19:37;103841.25;;;0.23;100.00
35806;BME280;21925;44.608;11.580;2024-01-30T06:22:04;103842.06;;;0.17;100.00
35806;BME280;21925;44.608;11.580;2024-01-30T06:24:30;103846.41;;;0.18;100.00
35806;BME280;21925;44.608;11.580;2024-01-30T06:26:55;103789.09;;;-0.10;100.00
35806;BME280;21925;44.608;11.580;2024-01-30T06:29:21;103852.66;;;0.18;100.00
35806;BME280;21925;44.608;11.580;2024-01-30T06:31:47;103913.97;;;0.44;100.00
35806;BME280;21925;44.608;11.580;2024-01-30T06:34:13;103836.84;;;0.02;100.00
35806;BME280;21925;44.608;11.580;2024-01-30T06:36:38;103869.72;;;0.32;100.00
35806;BME280;21925;44.608;11.580;2024-01-30T06:39:04;103874.94;;;0.40;100.00
35806;BME280;21925;44.608;11.580;2024-01-30T06:41:30;103893.00;;;0.46;100.00
35806;BME280;21925;44.608;11.580;2024-01-30T06:43:56;103924.16;;;0.61;100.00
35806;BME280;21925;44.608;11.580;2024-01-30T06:46:22;103859.69;;;0.13;100.00
35806;BME280;21925;44.608;11.580;2024-01-30T06:48:47;103886.34;;;0.35;100.00
35806;BME280;21925;44.608;11.580;2024-01-30T06:51:13;103883.88;;;0.47;100.00
35806;BME280;21925;44.608;11.580;2024-01-30T06:53:39;103872.59;;;0.24;100.00
35806;BME280;21925;44.608;11.580;2024-01-30T06:56:05;103875.53;;;0.42;100.00
35806;BME280;21925;44.608;11.580;2024-01-30T06:58:31;103904.22;;;0.62;100.00
35806;BME280;21925;44.608;11.580;2024-01-30T07:00:58;103925.47;;;0.72;100.00
35806;BME280;21925;44.608;11.580;2024-01-30T07:03:23;103859.50;;;0.21;100.00
35806;BME280;21925;44.608;11.580;2024-01-30T07:05:49;103925.25;;;0.79;100.00
35806;BME280;21925;44.608;11.580;2024-01-30T07:08:18;103852.91;;;0.30;100.00
35806;BME280;21925;44.608;11.580;2024-01-30T07:10:44;103890.50;;;0.51;100.00
35806;BME280;21925;44.608;11.580;2024-01-30T07:13:10;103861.78;;;0.17;100.00
35806;BME280;21925;44.608;11.580;2024-01-30T07:15:36;103885.91;;;0.32;100.00
35806;BME280;21925;44.608;11.580;2024-01-30T07:18:02;103920.44;;;0.56;100.00
35806;BME280;21925;44.608;11.580;2024-01-30T07:20:28;103871.72;;;0.17;100.00
35806;BME280;21925;44.608;11.580;2024-01-30T07:22:55;103873.25;;;0.32;100.00
35806;BME280;21925;44.608;11.580;2024-01-30T07:25:21;103863.03;;;0.15;100.00
35806;BME280;21925;44.608;11.580;2024-01-30T07:27:47;103917.50;;;0.51;100.00
35806;BME280;21925;44.608;11.580;2024-01-30T07:30:12;103855.53;;;0.17;100.00
35806;BME280;21925;44.608;11.580;2024-01-30T07:32:38;103947.06;;;0.72;100.00
35806;BME280;21925;44.608;11.580;2024-01-30T07:35:04;103893.59;;;0.35;100.00
35806;BME280;21925;44.608;11.580;2024-01-30T07:37:30;103904.19;;;0.36;100.00
35806;BME280;21925;44.608;11.580;2024-01-30T07:39:55;103887.97;;;0.30;100.00
35806;BME280;21925;44.608;11.580;2024-01-30T07:42:21;103935.78;;;0.55;100.00
35806;BME280;21925;44.608;11.580;2024-01-30T07:44:46;103932.47;;;0.60;100.00
35806;BME280;21925;44.608;11.580;2024-01-30T07:47:12;103920.44;;;0.69;100.00
35806;BME280;21925;44.608;11.580;2024-01-30T07:49:38;103964.13;;;0.91;100.00
35806;BME280;21925;44.608;11.580;2024-01-30T07:52:03;103924.22;;;0.74;100.00
35806;BME280;21925;44.608;11.580;2024-01-30T07:54:30;103901.34;;;0.77;100.00
35806;BME280;21925;44.608;11.580;2024-01-30T07:57:00;103964.13;;;1.17;100.00
35806;BME280;21925;44.608;11.580;2024-01-30T07:59:25;103941.69;;;0.91;100.00
35806;BME280;21925;44.608;11.580;2024-01-30T08:01:51;103935.22;;;0.85;100.00
35806;BME280;21925;44.608;11.580;2024-01-30T08:04:17;103930.25;;;0.89;100.00
35806;BME280;21925;44.608;11.580;2024-01-30T08:06:43;103924.03;;;0.88;100.00
35806;BME280;21925;44.608;11.580;2024-01-30T08:09:08;103969.13;;;1.07;100.00
35806;BME280;21925;44.608;11.580;2024-01-30T08:11:34;103893.44;;;0.62;100.00
35806;BME280;21925;44.608;11.580;2024-01-30T08:13:59;103906.72;;;0.70;100.00
35806;BME280;21925;44.608;11.580;2024-01-30T08:16:25;103983.28;;;1.29;100.00
35806;BME280;21925;44.608;11.580;2024-01-30T08:18:52;103933.16;;;0.81;100.00
35806;BME280;21925;44.608;11.580;2024-01-30T08:21:19;103954.16;;;0.98;100.00
35806;BME280;21925;44.608;11.580;2024-01-30T08:23:44;103972.03;;;1.19;100.00
35806;BME280;21925;44.608;11.580;2024-01-30T08:26:10;103925.47;;;1.10;100.00
35806;BME280;21925;44.608;11.580;2024-01-30T08:28:35;103934.63;;;1.35;100.00
35806;BME280;21925;44.608;11.580;2024-01-30T08:31:01;103898.03;;;0.87;100.00
35806;BME280;21925;44.608;11.580;2024-01-30T08:33:27;103970.78;;;1.47;100.00
35806;BME280;21925;44.608;11.580;2024-01-30T08:35:53;103947.91;;;1.30;100.00
35806;BME280;21925;44.608;11.580;2024-01-30T08:38:19;103823.66;;;0.53;100.00
35806;BME280;21925;44.608;11.580;2024-01-30T08:40:45;103914.47;;;1.18;100.00
35806;BME280;21925;44.608;11.580;2024-01-30T08:43:10;103922.97;;;1.22;100.00
35806;BME280;21925;44.608;11.580;2024-01-30T08:45:36;103979.94;;;1.59;100.00
35806;BME280;21925;44.608;11.580;2024-01-30T08:48:02;103918.41;;;1.09;100.00
35806;BME280;21925;44.608;11.580;2024-01-30T08:50:28;103935.44;;;1.42;100.00
35806;BME280;21925;44.608;11.580;2024-01-30T08:52:53;103840.47;;;0.93;100.00
35806;BME280;21925;44.608;11.580;2024-01-30T08:55:19;103904.03;;;1.48;100.00
35806;BME280;21925;44.608;11.580;2024-01-30T08:57:45;103896.75;;;1.55;100.00
35806;BME280;21925;44.608;11.580;2024-01-30T09:00:11;103944.63;;;2.11;100.00
35806;BME280;21925;44.608;11.580;2024-01-30T09:02:37;103929.06;;;2.00;100.00
35806;BME280;21925;44.608;11.580;2024-01-30T09:05:03;103918.16;;;2.19;100.00
35806;BME280;21925;44.608;11.580;2024-01-30T09:07:28;103806.88;;;1.46;100.00
35806;BME280;21925;44.608;11.580;2024-01-30T09:09:54;103929.00;;;2.19;100.00
35806;BME280;21925;44.608;11.580;2024-01-30T09:12:20;103932.09;;;2.23;100.00
35806;BME280;21925;44.608;11.580;2024-01-30T09:14:45;103930.03;;;2.18;100.00
35806;BME280;21925;44.608;11.580;2024-01-30T09:17:11;103936.94;;;2.08;100.00
35806;BME280;21925;44.608;11.580;2024-01-30T09:19:37;103881.50;;;1.66;100.00
35806;BME280;21925;44.608;11.580;2024-01-30T09:22:03;103948.88;;;2.37;100.00
35806;BME280;21925;44.608;11.580;2024-01-30T09:24:29;103920.59;;;2.34;100.00
35806;BME280;21925;44.608;11.580;2024-01-30T09:26:55;103867.06;;;1.92;100.00
35806;BME280;21925;44.608;11.580;2024-01-30T09:29:21;103878.53;;;1.87;100.00
35806;BME280;21925;44.608;11.580;2024-01-30T09:31:47;103971.78;;;2.41;100.00
35806;BME280;21925;44.608;11.580;2024-01-30T09:34:13;103918.88;;;2.02;100.00
35806;BME280;21925;44.608;11.580;2024-01-30T09:36:39;103942.59;;;2.43;100.00
35806;BME280;21925;44.608;11.580;2024-01-30T09:39:05;103958.44;;;2.46;100.00
35806;BME280;21925;44.608;11.580;2024-01-30T09:41:32;103889.50;;;2.05;100.00
35806;BME280;21925;44.608;11.580;2024-01-30T09:44:00;103957.81;;;2.82;100.00
35806;BME280;21925;44.608;11.580;2024-01-30T09:46:28;103931.47;;;2.89;100.00
35806;BME280;21925;44.608;11.580;2024-01-30T09:48:57;103908.44;;;3.04;100.00
35806;BME280;21925;44.608;11.580;2024-01-30T09:51:25;103904.50;;;3.00;100.00
35806;BME280;21925;44.608;11.580;2024-01-30T09:53:53;103889.81;;;2.83;100.00
35806;BME280;21925;44.608;11.580;2024-01-30T09:56:19;103932.81;;;3.28;100.00
35806;BME280;21925;44.608;11.580;2024-01-30T09:58:46;103878.22;;;3.25;100.00
35806;BME280;21925;44.608;11.580;2024-01-30T10:01:11;103892.72;;;3.13;100.00
35806;BME280;21925;44.608;11.580;2024-01-30T10:03:37;103929.31;;;3.28;100.00
35806;BME280;21925;44.608;11.580;2024-01-30T10:06:03;103883.44;;;3.02;100.00
35806;BME280;21925;44.608;11.580;2024-01-30T10:08:29;103882.72;;;3.13;100.00
35806;BME280;21925;44.608;11.580;2024-01-30T10:10:55;103891.34;;;3.04;100.00
35806;BME280;21925;44.608;11.580;2024-01-30T10:13:20;103920.66;;;3.37;100.00
35806;BME280;21925;44.608;11.580;2024-01-30T10:15:47;103882.69;;;3.37;100.00
35806;BME280;21925;44.608;11.580;2024-01-30T10:18:12;103930.44;;;3.63;100.00
35806;BME280;21925;44.608;11.580;2024-01-30T10:20:38;103859.75;;;2.91;100.00
35806;BME280;21925;44.608;11.580;2024-01-30T10:23:04;103947.75;;;3.80;100.00
35806;BME280;21925;44.608;11.580;2024-01-30T10:25:32;103858.59;;;3.83;100.00
35806;BME280;21925;44.608;11.580;2024-01-30T10:27:58;103876.53;;;3.66;100.00
35806;BME280;21925;44.608;11.580;2024-01-30T10:30:24;103924.47;;;4.08;100.00
35806;BME280;21925;44.608;11.580;2024-01-30T10:32:51;103841.03;;;3.68;100.00
35806;BME280;21925;44.608;11.580;2024-01-30T10:35:16;103928.47;;;4.23;100.00
35806;BME280;21925;44.608;11.580;2024-01-30T10:37:48;103864.50;;;4.27;100.00
35806;BME280;21925;44.608;11.580;2024-01-30T10:40:15;103912.19;;;4.05;100.00
35806;BME280;21925;44.608;11.580;2024-01-30T10:42:45;103875.59;;;4.37;100.00
35806;BME280;21925;44.608;11.580;2024-01-30T10:45:12;103826.81;;;4.01;100.00
35806;BME280;21925;44.608;11.580;2024-01-30T10:47:48;103851.69;;;4.16;100.00
35806;BME280;21925;44.608;11.580;2024-01-30T10:50:14;103838.69;;;4.48;100.00
35806;BME280;21925;44.608;11.580;2024-01-30T10:52:41;103839.88;;;4.22;100.00
35806;BME280;21925;44.608;11.580;2024-01-30T10:55:07;103824.47;;;4.34;100.00
35806;BME280;21925;44.608;11.580;2024-01-30T10:57:37;103843.63;;;4.39;100.00
35806;BME280;21925;44.608;11.580;2024-01-30T11:00:06;103836.97;;;4.76;100.00
35806;BME280;21925;44.608;11.580;2024-01-30T11:02:38;103863.38;;;5.10;100.00
35806;BME280;21925;44.608;11.580;2024-01-30T11:05:05;103872.72;;;5.25;100.00
35806;BME280;21925;44.608;11.580;2024-01-30T11:07:31;103865.28;;;5.21;100.00
35806;BME280;21925;44.608;11.580;2024-01-30T11:10:01;103870.72;;;5.32;100.00
35806;BME280;21925;44.608;11.580;2024-01-30T11:12:28;103802.25;;;5.24;100.00
35806;BME280;21925;44.608;11.580;2024-01-30T11:15:06;103857.31;;;5.65;100.00
35806;BME280;21925;44.608;11.580;2024-01-30T11:20:25;103788.63;;;5.74;100.00
35806;BME280;21925;44.608;11.580;2024-01-30T11:22:52;103824.22;;;5.96;100.00
35806;BME280;21925;44.608;11.580;2024-01-30T11:25:20;103846.84;;;6.24;100.00
35806;BME280;21925;44.608;11.580;2024-01-30T11:27:46;103784.19;;;6.24;100.00
35806;BME280;21925;44.608;11.580;2024-01-30T11:30:31;103790.75;;;6.39;100.00
35806;BME280;21925;44.608;11.580;2024-01-30T11:33:05;103820.91;;;6.99;100.00
35806;BME280;21925;44.608;11.580;2024-01-30T11:35:33;103788.69;;;6.79;100.00
35806;BME280;21925;44.608;11.580;2024-01-30T11:37:59;103767.03;;;6.89;100.00
35806;BME280;21925;44.608;11.580;2024-01-30T11:40:30;103761.91;;;6.93;100.00
35806;BME280;21925;44.608;11.580;2024-01-30T11:42:56;103762.56;;;7.00;100.00
35806;BME280;21925;44.608;11.580;2024-01-30T11:45:22;103787.63;;;7.34;100.00
35806;BME280;21925;44.608;11.580;2024-01-30T11:47:48;103770.72;;;7.37;100.00
35806;BME280;21925;44.608;11.580;2024-01-30T11:50:13;103750.22;;;7.35;100.00
35806;BME280;21925;44.608;11.580;2024-01-30T11:52:40;103785.16;;;7.54;100.00
35806;BME280;21925;44.608;11.580;2024-01-30T11:55:06;103780.19;;;7.73;100.00
35806;BME280;21925;44.608;11.580;2024-01-30T11:57:33;103745.28;;;7.53;100.00
35806;BME280;21925;44.608;11.580;2024-01-30T12:00:01;103722.16;;;7.39;100.00
35806;BME280;21925;44.608;11.580;2024-01-30T12:02:29;103749.69;;;7.59;100.00
35806;BME280;21925;44.608;11.580;2024-01-30T12:04:55;103743.41;;;7.80;100.00
35806;BME280;21925;44.608;11.580;2024-01-30T12:07:20;103772.28;;;7.97;100.00
35806;BME280;21925;44.608;11.580;2024-01-30T12:09:53;103735.69;;;7.98;100.00
35806;BME280;21925;44.608;11.580;2024-01-30T12:12:22;103724.44;;;7.95;100.00
35806;BME280;21925;44.608;11.580;2024-01-30T12:14:49;103740.94;;;8.05;100.00
35806;BME280;21925;44.608;11.580;2024-01-30T12:17:32;103747.88;;;8.39;100.00
35806;BME280;21925;44.608;11.580;2024-01-30T12:20:15;103747.34;;;8.42;100.00
35806;BME280;21925;44.608;11.580;2024-01-30T12:22:46;103725.47;;;8.42;100.00
35806;BME280;21925;44.608;11.580;2024-01-30T12:25:20;103676.19;;;8.32;100.00
35806;BME280;21925;44.608;11.580;2024-01-30T12:27:48;103735.25;;;8.69;100.00
35806;BME280;21925;44.608;11.580;2024-01-30T12:30:18;103670.44;;;8.74;100.00
35806;BME280;21925;44.608;11.580;2024-01-30T12:32:46;103672.00;;;8.61;100.00
35806;BME280;21925;44.608;11.580;2024-01-30T12:35:14;103690.75;;;8.78;100.00
35806;BME280;21925;44.608;11.580;2024-01-30T12:37:45;103656.69;;;8.60;100.00
35806;BME280;21925;44.608;11.580;2024-01-30T12:40:12;103703.50;;;9.04;100.00